sensor_id;sensor_type;location;lat;lon;timestamp;pressure;altitude;pressure_sealevel;temperature;humidity
62418;BME280;48456;54.242;10.280;2022-08-07T00:00:22;102500.38;;;10.44;100.00
62418;BME280;48456;54.242;10.280;2022-08-07T00:02:49;102500.22;;;10.39;100.00
62418;BME280;48456;54.242;10.280;2022-08-07T00:05:18;102491.34;;;10.36;100.00
62418;BME280;48456;54.242;10.280;2022-08-07T00:07:45;102497.44;;;10.33;100.00
62418;BME280;48456;54.242;10.280;2022-08-07T00:10:15;102492.13;;;10.32;100.00
62418;BME280;48456;54.242;10.280;2022-08-07T00:12:51;102493.81;;;10.30;100.00
62418;BME280;48456;54.242;10.280;2022-08-07T00:15:27;102492.91;;;10.27;100.00
62418;BME280;48456;54.242;10.280;2022-08-07T00:18:11;102490.25;;;10.27;100.00
62418;BME280;48456;54.242;10.280;2022-08-07T00:20:45;102485.00;;;10.29;100.00
62418;BME280;48456;54.242;10.280;2022-08-07T00:23:12;102479.63;;;10.26;100.00
62418;BME280;48456;54.242;10.280;2022-08-07T00:25:42;102482.19;;;10.23;100.00
62418;BME280;48456;54.242;10.280;2022-08-07T00:28:11;102480.38;;;10.20;100.00
62418;BME280;48456;54.242;10.280;2022-08-07T00:30:40;102475.94;;;10.19;100.00
62418;BME280;48456;54.242;10.280;2022-08-07T00:33:07;102469.72;;;10.17;100.00
62418;BME280;48456;54.242;10.280;2022-08-07T00:35:34;102479.47;;;10.18;100.00
62418;BME280;48456;54.242;10.280;2022-08-07T00:38:02;102474.16;;;10.18;100.00
62418;BME280;48456;54.242;10.280;2022-08-07T00:40:28;102480.28;;;10.17;100.00
62418;BME280;48456;54.242;10.280;2022-08-07T00:43:05;102480.28;;;10.17;100.00
62418;BME280;48456;54.242;10.280;2022-08-07T00:45:36;102475.81;;;10.14;100.00
62418;BME280;48456;54.242;10.280;2022-08-07T00:48:03;102479.38;;;10.15;100.00
62418;BME280;48456;54.242;10.280;2022-08-07T00:50:36;102476.66;;;10.12;100.00
62418;BME280;48456;54.242;10.280;2022-08-07T00:53:16;102474.88;;;10.11;100.00
62418;BME280;48456;54.242;10.280;2022-08-07T00:55:42;102481.06;;;10.13;100.00
62418;BME280;48456;54.242;10.280;2022-08-07T00:58:27;102474.00;;;10.12;100.00
62418;BME280;48456;54.242;10.280;2022-08-07T01:00:53;102473.13;;;10.13;100.00
62418;BME280;48456;54.242;10.280;2022-08-07T01:03:20;102475.72;;;10.11;100.00
62418;BME280;48456;54.242;10.280;2022-08-07T01:06:06;102476.53;;;10.07;100.00
62418;BME280;48456;54.242;10.280;2022-08-07T01:08:33;102477.34;;;10.05;100.00
62418;BME280;48456;54.242;10.280;2022-08-07T01:10:59;102474.66;;;10.03;100.00
62418;BME280;48456;54.242;10.280;2022-08-07T01:13:46;102471.09;;;10.01;100.00
62418;BME280;48456;54.242;10.280;2022-08-07T01:16:21;102475.44;;;9.99;100.00
62418;BME280;48456;54.242;10.280;2022-08-07T01:18:56;102469.28;;;9.98;100.00
62418;BME280;48456;54.242;10.280;2022-08-07T01:21:22;102472.69;;;9.94;100.00
62418;BME280;48456;54.242;10.280;2022-08-07T01:23:53;102470.81;;;9.90;100.00
62418;BME280;48456;54.242;10.280;2022-08-07T01:26:21;102466.34;;;9.87;100.00
62418;BME280;48456;54.242;10.280;2022-08-07T01:28:51;102468.09;;;9.87;100.00
62418;BME280;48456;54.242;10.280;2022-08-07T01:31:19;102461.94;;;9.86;100.00
62418;BME280;48456;54.242;10.280;2022-08-07T01:33:46;102461.88;;;9.85;100.00
62418;BME280;48456;54.242;10.280;2022-08-07T01:36:23;102467.03;;;9.80;100.00
62418;BME280;48456;54.242;10.280;2022-08-07T01:39:02;102469.66;;;9.79;100.00
62418;BME280;48456;54.242;10.280;2022-08-07T01:41:35;102461.66;;;9.77;100.00
62418;BME280;48456;54.242;10.280;2022-08-07T01:44:03;102473.09;;;9.76;100.00
62418;BME280;48456;54.242;10.280;2022-08-07T01:46:30;102465.09;;;9.73;100.00
62418;BME280;48456;54.242;10.280;2022-08-07T01:48:56;102466.00;;;9.73;100.00
62418;BME280;48456;54.242;10.280;2022-08-07T01:51:25;102460.72;;;9.73;100.00
62418;BME280;48456;54.242;10.280;2022-08-07T01:54:12;102464.13;;;9.69;100.00
62418;BME280;48456;54.242;10.280;2022-08-07T01:57:01;102466.69;;;9.66;100.00
62418;BME280;48456;54.242;10.280;2022-08-07T01:59:31;102463.88;;;9.60;100.00
62418;BME280;48456;54.242;10.280;2022-08-07T02:02:04;102462.88;;;9.55;100.00
62418;BME280;48456;54.242;10.280;2022-08-07T02:04:42;102460.09;;;9.50;100.00
62418;BME280;48456;54.242;10.280;2022-08-07T02:07:22;102453.91;;;9.48;100.00
62418;BME280;48456;54.242;10.280;2022-08-07T02:10:01;102452.91;;;9.44;100.00
62418;BME280;48456;54.242;10.280;2022-08-07T02:12:30;102457.31;;;9.45;100.00
62418;BME280;48456;54.242;10.280;2022-08-07T02:14:58;102459.91;;;9.42;100.00
62418;BME280;48456;54.242;10.280;2022-08-07T02:17:26;102455.44;;;9.40;100.00
62418;BME280;48456;54.242;10.280;2022-08-07T02:20:00;102451.78;;;9.36;100.00
62418;BME280;48456;54.242;10.280;2022-08-07T02:22:34;102449.09;;;9.34;100.00
62418;BME280;48456;54.242;10.280;2022-08-07T02:25:06;102443.81;;;9.34;100.00
62418;BME280;48456;54.242;10.280;2022-08-07T02:27:42;102449.06;;;9.33;100.00
62418;BME280;48456;54.242;10.280;2022-08-07T02:30:17;102447.22;;;9.29;100.00
62418;BME280;48456;54.242;10.280;2022-08-07T02:32:44;102448.00;;;9.26;100.00
62418;BME280;48456;54.242;10.280;2022-08-07T02:35:32;102447.19;;;9.27;100.00
62418;BME280;48456;54.242;10.280;2022-08-07T02:38:18;102446.31;;;9.28;100.00
62418;BME280;48456;54.242;10.280;2022-08-07T02:40:53;102442.84;;;9.31;100.00
62418;BME280;48456;54.242;10.280;2022-08-07T02:43:21;102456.19;;;9.35;100.00
62418;BME280;48456;54.242;10.280;2022-08-07T02:45:48;102448.28;;;9.35;100.00
62418;BME280;48456;54.242;10.280;2022-08-07T02:48:24;102451.75;;;9.34;100.00
62418;BME280;48456;54.242;10.280;2022-08-07T02:50:53;102445.50;;;9.31;100.00
62418;BME280;48456;54.242;10.280;2022-08-07T02:53:23;102452.50;;;9.29;100.00
62418;BME280;48456;54.242;10.280;2022-08-07T02:55:52;102449.81;;;9.27;100.00
62418;BME280;48456;54.242;10.280;2022-08-07T02:58:30;102445.34;;;9.25;100.00
62418;BME280;48456;54.242;10.280;2022-08-07T03:00:58;102443.53;;;9.23;100.00
62418;BME280;48456;54.242;10.280;2022-08-07T03:03:28;102439.06;;;9.21;100.00
62418;BME280;48456;54.242;10.280;2022-08-07T03:06:15;102436.31;;;9.16;100.00
62418;BME280;48456;54.242;10.280;2022-08-07T03:08:59;102432.63;;;9.11;100.00
62418;BME280;48456;54.242;10.280;2022-08-07T03:11:25;102432.56;;;9.08;100.00
62418;BME280;48456;54.242;10.280;2022-08-07T03:13:53;102434.28;;;9.07;100.00
62418;BME280;48456;54.242;10.280;2022-08-07T03:16:26;102431.66;;;9.07;100.00
62418;BME280;48456;54.242;10.280;2022-08-07T03:18:53;102432.47;;;9.05;100.00
62418;BME280;48456;54.242;10.280;2022-08-07T03:21:20;102434.16;;;9.03;100.00
62418;BME280;48456;54.242;10.280;2022-08-07T03:23:47;102432.31;;;9.00;100.00
62418;BME280;48456;54.242;10.280;2022-08-07T03:26:35;102433.22;;;9.01;100.00
62418;BME280;48456;54.242;10.280;2022-08-07T03:29:16;102425.22;;;8.97;100.00
62418;BME280;48456;54.242;10.280;2022-08-07T03:31:44;102428.72;;;8.96;100.00
62418;BME280;48456;54.242;10.280;2022-08-07T03:34:15;102426.88;;;8.94;100.00
62418;BME280;48456;54.242;10.280;2022-08-07T03:36:48;102423.44;;;8.96;100.00
62418;BME280;48456;54.242;10.280;2022-08-07T03:39:16;102424.25;;;8.94;100.00
62418;BME280;48456;54.242;10.280;2022-08-07T03:42:05;102431.25;;;8.93;100.00
62418;BME280;48456;54.242;10.280;2022-08-07T03:44:33;102418.00;;;8.92;100.00
62418;BME280;48456;54.242;10.280;2022-08-07T03:47:01;102422.47;;;8.94;100.00
62418;BME280;48456;54.242;10.280;2022-08-07T03:49:40;102421.59;;;8.94;100.00
62418;BME280;48456;54.242;10.280;2022-08-07T03:52:12;102418.97;;;8.94;100.00
62418;BME280;48456;54.242;10.280;2022-08-07T03:54:52;102418.00;;;8.92;100.00
62418;BME280;48456;54.242;10.280;2022-08-07T03:57:32;102424.16;;;8.91;100.00
62418;BME280;48456;54.242;10.280;2022-08-07T04:00:19;102421.56;;;8.92;100.00
62418;BME280;48456;54.242;10.280;2022-08-07T04:02:54;102420.66;;;8.92;100.00
62418;BME280;48456;54.242;10.280;2022-08-07T04:05:22;102421.50;;;8.91;100.00
62418;BME280;48456;54.242;10.280;2022-08-07T04:08:04;102423.28;;;8.92;100.00
62418;BME280;48456;54.242;10.280;2022-08-07T04:10:30;102429.53;;;8.94;100.00
62418;BME280;48456;54.242;10.280;2022-08-07T04:13:03;102429.63;;;8.97;100.00
62418;BME280;48456;54.242;10.280;2022-08-07T04:15:40;102427.03;;;9.00;100.00
62418;BME280;48456;54.242;10.280;2022-08-07T04:18:09;102434.16;;;9.03;100.00
62418;BME280;48456;54.242;10.280;2022-08-07T04:20:56;102431.59;;;9.06;100.00
62418;BME280;48456;54.242;10.280;2022-08-07T04:23:23;102436.97;;;9.09;100.00
62418;BME280;48456;54.242;10.280;2022-08-07T04:26:09;102439.72;;;9.12;100.00
62418;BME280;48456;54.242;10.280;2022-08-07T04:28:36;102444.19;;;9.15;100.00
62418;BME280;48456;54.242;10.280;2022-08-07T04:31:03;102446.03;;;9.17;100.00
62418;BME280;48456;54.242;10.280;2022-08-07T04:33:32;102451.41;;;9.20;100.00
62418;BME280;48456;54.242;10.280;2022-08-07T04:36:00;102450.63;;;9.25;100.00
62418;BME280;48456;54.242;10.280;2022-08-07T04:38:31;102454.34;;;9.33;100.00
62418;BME280;48456;54.242;10.280;2022-08-07T04:40:59;102447.53;;;9.41;100.00
62418;BME280;48456;54.242;10.280;2022-08-07T04:43:27;102455.63;;;9.47;100.00
62418;BME280;48456;54.242;10.280;2022-08-07T04:49:00;102456.06;;;9.65;100.00
62418;BME280;48456;54.242;10.280;2022-08-07T04:59:45;102438.50;;;10.02;100.00
62418;BME280;48456;54.242;10.280;2022-08-07T05:06:08;102449.53;;;10.21;100.00
62418;BME280;48456;54.242;10.280;2022-08-07T05:08:47;102448.84;;;10.30;100.00
62418;BME280;48456;54.242;10.280;2022-08-07T05:11:31;102443.81;;;10.40;100.00
62418;BME280;48456;54.242;10.280;2022-08-07T05:14:21;102448.56;;;10.56;100.00
62418;BME280;48456;54.242;10.280;2022-08-07T05:17:09;102447.19;;;10.72;100.00
62418;BME280;48456;54.242;10.280;2022-08-07T05:19:39;102449.31;;;10.90;100.00
62418;BME280;48456;54.242;10.280;2022-08-07T05:22:10;102439.00;;;11.04;100.00
62418;BME280;48456;54.242;10.280;2022-08-07T05:24:51;102456.09;;;11.20;100.00
62418;BME280;48456;54.242;10.280;2022-08-07T05:27:20;102458.13;;;11.35;100.00
62418;BME280;48456;54.242;10.280;2022-08-07T05:30:08;102455.88;;;11.55;100.00
62418;BME280;48456;54.242;10.280;2022-08-07T05:32:36;102453.44;;;11.66;100.00
62418;BME280;48456;54.242;10.280;2022-08-07T05:35:05;102449.94;;;11.69;100.00
62418;BME280;48456;54.242;10.280;2022-08-07T05:37:32;102449.91;;;11.67;100.00
62418;BME280;48456;54.242;10.280;2022-08-07T05:40:07;102448.13;;;11.66;100.00
62418;BME280;48456;54.242;10.280;2022-08-07T05:42:45;102445.44;;;11.65;100.00
62418;BME280;48456;54.242;10.280;2022-08-07T05:45:21;102451.72;;;11.70;100.00
62418;BME280;48456;54.242;10.280;2022-08-07T05:48:08;102447.56;;;11.85;100.00
62418;BME280;48456;54.242;10.280;2022-08-07T05:50:35;102449.50;;;11.96;100.00
62418;BME280;48456;54.242;10.280;2022-08-07T05:53:09;102457.91;;;12.21;100.00
62418;BME280;48456;54.242;10.280;2022-08-07T05:55:55;102445.91;;;12.50;100.00
62418;BME280;48456;54.242;10.280;2022-08-07T05:58:29;102447.16;;;12.77;100.00
62418;BME280;48456;54.242;10.280;2022-08-07T06:01:02;102444.84;;;13.05;100.00
62418;BME280;48456;54.242;10.280;2022-08-07T06:03:30;102448.84;;;13.46;100.00
62418;BME280;48456;54.242;10.280;2022-08-07T06:06:18;102452.81;;;13.90;100.00
62418;BME280;48456;54.242;10.280;2022-08-07T06:08:45;102448.59;;;14.19;100.00
62418;BME280;48456;54.242;10.280;2022-08-07T06:11:16;102447.91;;;14.56;100.00
62418;BME280;48456;54.242;10.280;2022-08-07T06:13:45;102448.84;;;14.64;100.00
62418;BME280;48456;54.242;10.280;2022-08-07T06:16:32;102447.09;;;14.69;100.00
62418;BME280;48456;54.242;10.280;2022-08-07T06:19:00;102449.81;;;14.76;100.00
62418;BME280;48456;54.242;10.280;2022-08-07T06:21:31;102453.41;;;14.76;100.00
62418;BME280;48456;54.242;10.280;2022-08-07T06:24:18;102447.09;;;14.71;100.00
62418;BME280;48456;54.242;10.280;2022-08-07T06:27:04;102443.56;;;14.75;100.00
62418;BME280;48456;54.242;10.280;2022-08-07T06:29:33;102441.06;;;14.96;100.00
62418;BME280;48456;54.242;10.280;2022-08-07T06:32:04;102450.84;;;15.09;100.00
62418;BME280;48456;54.242;10.280;2022-08-07T06:34:30;102449.13;;;15.27;100.00
62418;BME280;48456;54.242;10.280;2022-08-07T06:36:56;102449.13;;;15.27;100.00
62418;BME280;48456;54.242;10.280;2022-08-07T06:39:23;102448.25;;;15.34;100.00
62418;BME280;48456;54.242;10.280;2022-08-07T06:44:38;102458.03;;;15.52;100.00
62418;BME280;48456;54.242;10.280;2022-08-07T06:47:05;102461.63;;;15.75;100.00
62418;BME280;48456;54.242;10.280;2022-08-07T06:49:40;102450.09;;;16.05;100.00
62418;BME280;48456;54.242;10.280;2022-08-07T06:52:18;102451.88;;;16.09;100.00
62418;BME280;48456;54.242;10.280;2022-08-07T06:55:02;102450.06;;;15.90;100.00
62418;BME280;48456;54.242;10.280;2022-08-07T06:57:49;102449.19;;;15.88;100.00
62418;BME280;48456;54.242;10.280;2022-08-07T07:00:22;102443.84;;;15.83;100.00
62418;BME280;48456;54.242;10.280;2022-08-07T07:02:49;102444.72;;;15.87;100.00
62418;BME280;48456;54.242;10.280;2022-08-07T07:05:23;102445.66;;;16.09;100.00
62418;BME280;48456;54.242;10.280;2022-08-07T07:08:10;102440.25;;;16.32;100.00
62418;BME280;48456;54.242;10.280;2022-08-07T07:10:50;102444.69;;;16.52;100.00
62418;BME280;48456;54.242;10.280;2022-08-07T07:13:45;102440.25;;;16.46;100.00
62418;BME280;48456;54.242;10.280;2022-08-07T07:16:23;102445.63;;;16.28;100.00
62418;BME280;48456;54.242;10.280;2022-08-07T07:18:56;102449.19;;;16.03;100.00
62418;BME280;48456;54.242;10.280;2022-08-07T07:21:25;102446.50;;;15.94;100.00
62418;BME280;48456;54.242;10.280;2022-08-07T07:24:12;102447.44;;;15.99;100.00
62418;BME280;48456;54.242;10.280;2022-08-07T07:26:42;102458.09;;;16.32;100.00
62418;BME280;48456;54.242;10.280;2022-08-07T07:29:17;102450.84;;;16.65;100.00
62418;BME280;48456;54.242;10.280;2022-08-07T07:32:06;102442.72;;;16.98;100.00
62418;BME280;48456;54.242;10.280;2022-08-07T07:34:33;102444.34;;;17.28;100.00
62418;BME280;48456;54.242;10.280;2022-08-07T07:37:04;102446.88;;;17.53;100.00
62418;BME280;48456;54.242;10.280;2022-08-07T07:39:53;102440.50;;;17.67;100.00
62418;BME280;48456;54.242;10.280;2022-08-07T07:42:22;102438.69;;;17.74;100.00
62418;BME280;48456;54.242;10.280;2022-08-07T07:44:58;102433.19;;;17.92;100.00
62418;BME280;48456;54.242;10.280;2022-08-07T07:47:25;102428.78;;;17.84;100.00
62418;BME280;48456;54.242;10.280;2022-08-07T07:49:53;102443.78;;;18.03;100.00
62418;BME280;48456;54.242;10.280;2022-08-07T07:52:40;102438.25;;;18.22;100.00
62418;BME280;48456;54.242;10.280;2022-08-07T07:55:07;102423.09;;;18.23;100.00
62418;BME280;48456;54.242;10.280;2022-08-07T07:57:36;102430.13;;;18.31;100.00
62418;BME280;48456;54.242;10.280;2022-08-07T08:00:18;102430.00;;;18.44;100.00
62418;BME280;48456;54.242;10.280;2022-08-07T08:02:56;102415.78;;;18.37;100.00
62418;BME280;48456;54.242;10.280;2022-08-07T08:05:31;102413.88;;;18.50;100.00
62418;BME280;48456;54.242;10.280;2022-08-07T08:08:18;102407.72;;;18.40;100.00
62418;BME280;48456;54.242;10.280;2022-08-07T08:11:05;102411.25;;;18.42;100.00
62418;BME280;48456;54.242;10.280;2022-08-07T08:13:34;102417.22;;;18.66;100.00
62418;BME280;48456;54.242;10.280;2022-08-07T08:16:18;102405.38;;;18.85;100.00
62418;BME280;48456;54.242;10.280;2022-08-07T08:18:50;102409.63;;;19.03;100.00
62418;BME280;48456;54.242;10.280;2022-08-07T08:21:20;102411.69;;;18.80;100.00
62418;BME280;48456;54.242;10.280;2022-08-07T08:24:28;102410.09;;;18.67;100.00
62418;BME280;48456;54.242;10.280;2022-08-07T08:27:33;102408.91;;;18.88;100.00
62418;BME280;48456;54.242;10.280;2022-08-07T08:30:02;102408.78;;;18.98;100.00
62418;BME280;48456;54.242;10.280;2022-08-07T08:32:30;102412.16;;;19.15;100.00
62418;BME280;48456;54.242;10.280;2022-08-07T08:35:05;102401.03;;;19.40;100.00
62418;BME280;48456;54.242;10.280;2022-08-07T08:37:34;102410.88;;;19.40;100.00
62418;BME280;48456;54.242;10.280;2022-08-07T08:40:38;102408.09;;;19.46;100.00
62418;BME280;48456;54.242;10.280;2022-08-07T08:48:45;102402.66;;;20.50;100.00
62418;BME280;48456;54.242;10.280;2022-08-07T08:51:24;102386.59;;;20.91;98.21
62418;BME280;48456;54.242;10.280;2022-08-07T08:54:31;102398.81;;;21.05;98.90
62418;BME280;48456;54.242;10.280;2022-08-07T08:57:01;102398.81;;;21.06;90.79
62418;BME280;48456;54.242;10.280;2022-08-07T08:59:42;102400.81;;;20.96;95.22
62418;BME280;48456;54.242;10.280;2022-08-07T09:07:37;102396.59;;;19.91;100.00
62418;BME280;48456;54.242;10.280;2022-08-07T09:10:23;102400.75;;;19.59;100.00
62418;BME280;48456;54.242;10.280;2022-08-07T09:27:04;102404.44;;;18.89;100.00
62418;BME280;48456;54.242;10.280;2022-08-07T09:37:53;102401.88;;;19.44;100.00
62418;BME280;48456;54.242;10.280;2022-08-07T09:40:27;102396.09;;;19.69;100.00
62418;BME280;48456;54.242;10.280;2022-08-07T09:42:57;102393.22;;;19.80;100.00
62418;BME280;48456;54.242;10.280;2022-08-07T09:48:16;102393.03;;;19.91;100.00
62418;BME280;48456;54.242;10.280;2022-08-07T09:50:58;102392.91;;;19.98;100.00
62418;BME280;48456;54.242;10.280;2022-08-07T09:53:27;102387.34;;;20.08;100.00
62418;BME280;48456;54.242;10.280;2022-08-07T10:01:35;102387.44;;;20.49;100.00
62418;BME280;48456;54.242;10.280;2022-08-07T10:40:24;102363.63;;;21.14;100.00
62418;BME280;48456;54.242;10.280;2022-08-07T10:51:08;102354.41;;;21.26;100.00
62418;BME280;48456;54.242;10.280;2022-08-07T10:54:05;102351.84;;;21.20;100.00
62418;BME280;48456;54.242;10.280;2022-08-07T11:02:17;102340.94;;;21.26;100.00
62418;BME280;48456;54.242;10.280;2022-08-07T11:07:39;102341.97;;;22.23;90.65
62418;BME280;48456;54.242;10.280;2022-08-07T11:13:06;102341.28;;;23.32;67.27
62418;BME280;48456;54.242;10.280;2022-08-07T11:15:54;102338.75;;;23.55;65.61
62418;BME280;48456;54.242;10.280;2022-08-07T11:18:28;102341.19;;;22.80;69.70
62418;BME280;48456;54.242;10.280;2022-08-07T11:21:22;102334.09;;;21.84;77.14
62418;BME280;48456;54.242;10.280;2022-08-07T11:24:36;102336.03;;;21.06;89.23
62418;BME280;48456;54.242;10.280;2022-08-07T11:26:47;102333.81;;;20.44;97.00
62418;BME280;48456;54.242;10.280;2022-08-07T11:29:18;102338.16;;;20.06;100.00
62418;BME280;48456;54.242;10.280;2022-08-07T11:32:08;102339.31;;;19.91;100.00
62418;BME280;48456;54.242;10.280;2022-08-07T11:40:32;102335.44;;;19.57;100.00
62418;BME280;48456;54.242;10.280;2022-08-07T11:43:11;102340.25;;;19.38;100.00
62418;BME280;48456;54.242;10.280;2022-08-07T11:59:32;102331.41;;;18.71;100.00
62418;BME280;48456;54.242;10.280;2022-08-07T12:05:01;102332.22;;;18.76;100.00
62418;BME280;48456;54.242;10.280;2022-08-07T12:07:43;102332.06;;;18.89;100.00
62418;BME280;48456;54.242;10.280;2022-08-07T12:10:38;102324.06;;;18.84;100.00
62418;BME280;48456;54.242;10.280;2022-08-07T12:13:11;102326.72;;;18.87;100.00
62418;BME280;48456;54.242;10.280;2022-08-07T12:15:46;102324.94;;;18.86;100.00
62418;BME280;48456;54.242;10.280;2022-08-07T12:18:39;102315.75;;;19.03;100.00
62418;BME280;48456;54.242;10.280;2022-08-07T12:29:18;102304.47;;;19.87;100.00
62418;BME280;48456;54.242;10.280;2022-08-07T12:32:10;102300.28;;;20.20;100.00
62418;BME280;48456;54.242;10.280;2022-08-07T12:34:40;102302.56;;;20.38;100.00
62418;BME280;48456;54.242;10.280;2022-08-07T12:37:21;102312.72;;;20.67;100.00
62418;BME280;48456;54.242;10.280;2022-08-07T12:40:09;102304.19;;;20.85;100.00
62418;BME280;48456;54.242;10.280;2022-08-07T12:42:58;102295.84;;;20.99;100.00
62418;BME280;48456;54.242;10.280;2022-08-07T12:45:30;102299.09;;;21.12;100.00
62418;BME280;48456;54.242;10.280;2022-08-07T12:48:23;102297.22;;;21.16;100.00
62418;BME280;48456;54.242;10.280;2022-08-07T12:51:11;102294.56;;;21.14;100.00
62418;BME280;48456;54.242;10.280;2022-08-07T12:56:42;102281.75;;;21.92;95.50
62418;BME280;48456;54.242;10.280;2022-08-07T12:59:21;102281.19;;;23.00;73.92
62418;BME280;48456;54.242;10.280;2022-08-07T13:10:37;102280.25;;;22.14;78.62
62418;BME280;48456;54.242;10.280;2022-08-07T13:13:40;102268.44;;;21.88;77.52
62418;BME280;48456;54.242;10.280;2022-08-07T13:16:19;102278.53;;;22.11;80.07
62418;BME280;48456;54.242;10.280;2022-08-07T13:21:53;102276.16;;;23.16;77.46
62418;BME280;48456;54.242;10.280;2022-08-07T13:24:33;102267.22;;;24.62;61.95
62418;BME280;48456;54.242;10.280;2022-08-07T13:27:10;102269.66;;;25.56;54.73
62418;BME280;48456;54.242;10.280;2022-08-07T13:35:02;102260.50;;;26.57;45.73
62418;BME280;48456;54.242;10.280;2022-08-07T13:40:30;102259.38;;;25.42;50.27
62418;BME280;48456;54.242;10.280;2022-08-07T13:43:09;102264.69;;;24.80;53.55
62418;BME280;48456;54.242;10.280;2022-08-07T13:45:39;102248.31;;;25.47;54.13
62418;BME280;48456;54.242;10.280;2022-08-07T13:48:27;102252.47;;;25.77;49.40
62418;BME280;48456;54.242;10.280;2022-08-07T13:51:00;102246.56;;;26.07;49.74
62418;BME280;48456;54.242;10.280;2022-08-07T13:53:51;102243.19;;;27.14;46.25
62418;BME280;48456;54.242;10.280;2022-08-07T13:56:26;102241.69;;;27.78;41.83
62418;BME280;48456;54.242;10.280;2022-08-07T13:59:19;102235.53;;;27.74;41.45
62418;BME280;48456;54.242;10.280;2022-08-07T14:01:53;102231.44;;;27.14;43.38
62418;BME280;48456;54.242;10.280;2022-08-07T14:04:30;102228.16;;;26.52;49.15
62418;BME280;48456;54.242;10.280;2022-08-07T14:07:04;102231.72;;;26.90;45.43
62418;BME280;48456;54.242;10.280;2022-08-07T14:09:34;102230.19;;;25.70;49.38
62418;BME280;48456;54.242;10.280;2022-08-07T14:12:28;102228.09;;;25.56;49.21
62418;BME280;48456;54.242;10.280;2022-08-07T14:15:02;102232.19;;;25.46;51.06
62418;BME280;48456;54.242;10.280;2022-08-07T14:17:30;102234.88;;;25.04;52.67
62418;BME280;48456;54.242;10.280;2022-08-07T14:20:20;102233.06;;;24.60;57.90
62418;BME280;48456;54.242;10.280;2022-08-07T14:23:15;102226.41;;;23.98;60.54
62418;BME280;48456;54.242;10.280;2022-08-07T14:26:13;102218.63;;;23.41;65.48
62418;BME280;48456;54.242;10.280;2022-08-07T14:28:57;102223.69;;;22.98;73.38
62418;BME280;48456;54.242;10.280;2022-08-07T14:31:46;102232.81;;;22.94;80.09
62418;BME280;48456;54.242;10.280;2022-08-07T14:34:23;102215.97;;;23.14;79.89
62418;BME280;48456;54.242;10.280;2022-08-07T14:36:54;102223.13;;;23.66;73.29
62418;BME280;48456;54.242;10.280;2022-08-07T14:39:22;102214.84;;;23.95;66.85
62418;BME280;48456;54.242;10.280;2022-08-07T14:42:10;102223.47;;;24.05;69.55
62418;BME280;48456;54.242;10.280;2022-08-07T14:44:48;102216.94;;;24.34;68.76
62418;BME280;48456;54.242;10.280;2022-08-07T14:47:17;102226.53;;;24.43;63.11
62418;BME280;48456;54.242;10.280;2022-08-07T14:49:44;102220.13;;;24.22;63.93
62418;BME280;48456;54.242;10.280;2022-08-07T14:52:24;102216.84;;;23.66;71.31
62418;BME280;48456;54.242;10.280;2022-08-07T14:54:54;102217.91;;;23.09;80.15
62418;BME280;48456;54.242;10.280;2022-08-07T14:57:23;102212.25;;;22.90;90.04
62418;BME280;48456;54.242;10.280;2022-08-07T15:00:10;102211.28;;;23.19;88.02
62418;BME280;48456;54.242;10.280;2022-08-07T15:02:46;102203.00;;;24.23;77.87
62418;BME280;48456;54.242;10.280;2022-08-07T15:05:22;102196.69;;;25.10;62.58
62418;BME280;48456;54.242;10.280;2022-08-07T15:07:49;102197.78;;;25.06;59.60
62418;BME280;48456;54.242;10.280;2022-08-07T15:10:19;102207.72;;;24.62;59.37
62418;BME280;48456;54.242;10.280;2022-08-07T15:13:02;102201.47;;;24.16;62.31
62418;BME280;48456;54.242;10.280;2022-08-07T15:15:36;102201.50;;;24.38;64.95
62418;BME280;48456;54.242;10.280;2022-08-07T15:18:06;102196.63;;;25.12;59.98
62418;BME280;48456;54.242;10.280;2022-08-07T15:20:56;102193.03;;;24.68;58.06
62418;BME280;48456;54.242;10.280;2022-08-07T15:23:29;102196.88;;;23.94;64.24
62418;BME280;48456;54.242;10.280;2022-08-07T15:26:18;102195.19;;;23.16;70.83
62418;BME280;48456;54.242;10.280;2022-08-07T15:28:47;102199.00;;;22.56;75.63
62418;BME280;48456;54.242;10.280;2022-08-07T15:31:23;102196.25;;;22.28;87.80
62418;BME280;48456;54.242;10.280;2022-08-07T15:34:10;102193.13;;;22.13;89.69
62418;BME280;48456;54.242;10.280;2022-08-07T15:36:42;102183.38;;;22.38;82.61
62418;BME280;48456;54.242;10.280;2022-08-07T15:39:29;102184.81;;;22.78;70.36
62418;BME280;48456;54.242;10.280;2022-08-07T15:45:24;102181.13;;;23.06;65.32
62418;BME280;48456;54.242;10.280;2022-08-07T15:50:47;102174.03;;;22.50;68.15
62418;BME280;48456;54.242;10.280;2022-08-07T15:53:34;102176.28;;;22.35;69.44
62418;BME280;48456;54.242;10.280;2022-08-07T15:56:18;102175.13;;;22.15;70.11
62418;BME280;48456;54.242;10.280;2022-08-07T15:58:52;102181.84;;;22.00;75.22
62418;BME280;48456;54.242;10.280;2022-08-07T16:01:24;102168.41;;;21.68;79.74
62418;BME280;48456;54.242;10.280;2022-08-07T16:04:08;102176.00;;;21.54;81.87
62418;BME280;48456;54.242;10.280;2022-08-07T16:06:56;102174.25;;;21.53;80.35
62418;BME280;48456;54.242;10.280;2022-08-07T16:12:24;102176.69;;;21.29;81.61
62418;BME280;48456;54.242;10.280;2022-08-07T16:17:46;102177.94;;;21.15;85.77
62418;BME280;48456;54.242;10.280;2022-08-07T16:29:02;102167.94;;;20.86;92.83